.
WxDataArchive / Data Records for 2007-04-28
2007-04-27 April 2007 2007-04-29

Data Records for Saturday, 28 April 2007

Time	Temp	Chill	HIndex	Humid	Dewpt	 Wind 	HiWind	WindDir	Rain 	Barom 
-----	----	-----	------	-----	-----	------	------	-------	-----	----- 
00:00	48.3	48.3	48.3	91	45.8	1	2	248	0.00	29.858 
00:05	48.2	48.2	48.2	91	45.7	0	2	248	0.00	29.855 
00:10	48.2	48.2	48.2	92	46.0	0	2	248	0.00	29.855 
00:15	48.2	48.2	48.2	92	46.0	0	2	248	0.00	29.854 
00:20	48.0	48.0	48.0	92	45.8	0	2	248	0.00	29.854 
00:25	48.0	48.0	48.0	92	45.8	0	1	248	0.00	29.853 
00:30	48.0	48.0	48.0	92	45.8	0	2	248	0.00	29.852 
00:35	48.0	48.0	48.0	92	45.8	0	2	248	0.00	29.852 
00:40	48.0	48.0	48.0	92	45.8	0	2	248	0.00	29.850 
00:45	48.0	48.0	48.0	92	45.8	0	2	248	0.00	29.850 
00:50	48.0	48.0	48.0	92	45.8	0	1	248	0.00	29.847 
00:55	48.0	48.0	48.0	92	45.8	0	1	248	0.00	29.845 
01:00	48.0	48.0	48.0	92	45.8	0	1	248	0.00	29.847 
01:05	48.0	48.0	48.0	92	45.8	0	0	---	0.00	29.847 
01:10	48.0	48.0	48.0	92	45.8	0	1	248	0.00	29.845 
01:15	48.0	48.0	48.0	92	45.8	0	3	248	0.00	29.845 
01:20	47.9	47.9	47.9	92	45.7	0	3	270	0.00	29.843 
01:25	47.7	47.7	47.7	92	45.5	0	2	270	0.00	29.842 
01:30	47.6	47.6	47.6	92	45.4	1	3	248	0.00	29.842 
01:35	47.6	47.6	47.6	92	45.4	0	2	248	0.00	29.841 
01:40	47.4	47.4	47.4	91	44.9	0	2	248	0.00	29.841 
01:45	47.3	47.3	47.3	91	44.8	0	1	248	0.00	29.840 
01:50	47.3	47.3	47.3	90	44.5	0	1	248	0.00	29.840 
01:55	47.3	47.3	47.3	89	44.2	0	3	248	0.00	29.840 
02:00	47.3	47.3	47.3	89	44.2	0	1	248	0.00	29.839 
02:05	47.3	47.3	47.3	89	44.2	0	2	248	0.00	29.836 
02:10	47.3	47.3	47.3	89	44.2	0	2	248	0.00	29.834 
02:15	47.3	47.3	47.3	89	44.2	0	1	248	0.00	29.833 
02:20	47.1	47.1	47.1	89	44.0	0	2	248	0.00	29.831 
02:25	47.1	47.1	47.1	88	43.7	0	2	248	0.00	29.828 
02:30	47.1	47.1	47.1	88	43.7	0	1	248	0.00	29.828 
02:35	47.0	47.0	47.0	88	43.6	0	1	248	0.00	29.826 
02:40	47.0	47.0	47.0	88	43.6	0	1	248	0.00	29.825 
02:45	47.0	47.0	47.0	88	43.6	0	1	248	0.00	29.825 
02:50	46.8	46.8	46.8	88	43.4	0	1	248	0.00	29.825 
02:55	46.8	46.8	46.8	88	43.4	0	0	---	0.00	29.825 
03:00	46.8	46.8	46.8	88	43.4	0	1	248	0.00	29.826 
03:05	46.8	46.8	46.8	89	43.7	0	1	248	0.00	29.827 
03:10	46.8	46.8	46.8	89	43.7	0	1	248	0.00	29.827 
03:15	46.8	46.8	46.8	88	43.4	0	1	248	0.00	29.827 
03:20	46.8	46.8	46.8	88	43.4	0	0	---	0.00	29.830 
03:25	46.8	46.8	46.8	88	43.4	0	1	248	0.00	29.828 
03:30	46.8	46.8	46.8	88	43.4	0	2	248	0.00	29.829 
03:35	46.8	46.8	46.8	87	43.1	0	1	270	0.00	29.829 
03:40	46.8	46.8	46.8	87	43.1	0	1	270	0.00	29.831 
03:45	46.8	46.8	46.8	87	43.1	0	2	270	0.00	29.832 
03:50	46.8	46.8	46.8	87	43.1	0	1	270	0.00	29.835 
03:55	46.8	46.8	46.8	87	43.1	0	1	270	0.00	29.837 
04:00	46.8	46.8	46.8	87	43.1	0	1	270	0.00	29.838 
04:05	46.8	46.8	46.8	87	43.1	0	2	270	0.00	29.839 
04:10	46.8	46.8	46.8	86	42.8	0	2	270	0.00	29.837 
04:15	46.8	46.8	46.8	86	42.8	0	2	270	0.00	29.833 
04:20	46.8	46.8	46.8	85	42.5	1	2	270	0.00	29.834 
04:25	46.8	46.8	46.8	85	42.5	0	1	315	0.00	29.834 
04:30	46.7	46.7	46.7	85	42.4	0	1	315	0.00	29.834 
04:35	46.7	46.7	46.7	85	42.4	0	2	315	0.00	29.839 
04:40	46.5	46.5	46.5	86	42.5	0	2	315	0.00	29.841 
04:45	46.5	46.5	46.5	86	42.5	0	2	315	0.00	29.840 
04:50	46.4	46.4	46.4	86	42.4	0	3	315	0.00	29.840 
04:55	46.4	46.4	46.4	86	42.4	0	1	292	0.00	29.840 
05:00	46.2	46.2	46.2	86	42.2	0	2	292	0.00	29.838 
05:05	46.1	46.1	46.1	87	42.4	0	1	248	0.00	29.840 
05:10	46.0	46.0	46.0	87	42.4	0	1	248	0.00	29.842 
05:15	45.8	45.8	45.8	87	42.2	0	1	248	0.00	29.843 
05:20	45.8	45.8	45.8	88	42.5	0	3	248	0.00	29.843 
05:25	45.8	45.8	45.8	88	42.5	0	2	248	0.00	29.843 
05:30	45.7	45.7	45.7	88	42.4	0	1	248	0.00	29.844 
05:35	45.7	45.7	45.7	88	42.4	0	1	248	0.00	29.844 
05:40	45.5	45.5	45.5	88	42.2	0	0	---	0.00	29.844 
05:45	45.4	45.4	45.4	88	42.1	0	1	248	0.00	29.845 
05:50	45.2	45.2	45.2	89	42.2	0	1	248	0.00	29.846 
05:55	45.1	45.1	45.1	89	42.1	0	0	---	0.00	29.846 
06:00	44.9	44.9	44.9	89	41.9	0	1	248	0.00	29.845 
06:05	44.8	44.8	44.8	89	41.8	0	0	---	0.00	29.846 
06:10	44.6	44.6	44.6	90	41.9	0	0	---	0.00	29.846 
06:15	44.6	44.6	44.6	90	41.9	0	0	---	0.00	29.847 
06:20	44.5	44.5	44.5	90	41.8	0	0	---	0.00	29.848 
06:25	44.6	44.6	44.6	91	42.1	0	0	---	0.00	29.850 
06:30	44.8	44.8	44.8	91	42.3	0	0	---	0.00	29.853 
06:35	45.1	45.1	45.1	91	42.6	0	1	248	0.00	29.859 
06:40	45.5	45.5	45.5	90	42.7	0	1	248	0.00	29.859 
06:45	45.8	45.8	45.8	90	43.0	0	1	248	0.00	29.859 
06:50	46.2	46.2	46.2	89	43.1	0	2	248	0.00	29.861 
06:55	46.7	46.7	46.7	88	43.3	1	2	248	0.00	29.861 
07:00	47.0	47.0	47.0	87	43.3	0	2	248	0.00	29.863 
07:05	47.3	47.3	47.3	86	43.3	0	2	270	0.00	29.862 
07:10	47.7	47.7	47.7	85	43.4	1	2	270	0.00	29.864 
07:15	48.0	48.0	48.0	84	43.4	1	3	248	0.00	29.865 
07:20	48.5	48.5	48.5	84	43.9	0	1	248	0.00	29.866 
07:25	48.8	48.8	48.8	82	43.6	1	3	248	0.00	29.865 
07:30	49.2	49.2	49.2	80	43.3	1	3	270	0.00	29.868 
07:35	49.5	49.5	49.5	80	43.6	1	2	270	0.00	29.868 
07:40	49.9	49.9	49.9	78	43.3	1	4	248	0.00	29.866 
07:45	50.2	50.2	50.2	77	43.3	1	2	315	0.00	29.865 
07:50	50.5	50.5	50.5	76	43.2	0	3	315	0.00	29.865 
07:55	51.0	51.0	51.0	73	42.7	1	3	248	0.00	29.862 
08:00	51.4	51.4	51.4	72	42.7	1	3	248	0.00	29.862 
08:05	51.7	51.7	51.7	72	43.0	1	3	248	0.00	29.864 
08:10	52.2	52.2	52.2	71	43.1	1	3	270	0.00	29.863 
08:15	52.5	52.5	52.5	71	43.4	0	2	315	0.00	29.860 
08:20	52.9	52.9	52.9	70	43.4	1	2	315	0.00	29.858 
08:25	53.5	53.5	53.5	71	44.3	0	2	315	0.00	29.857 
08:30	53.8	53.8	53.8	65	42.3	1	3	315	0.00	29.856 
08:35	53.9	53.9	53.9	67	43.2	1	3	315	0.00	29.858 
08:40	54.4	54.4	54.4	66	43.3	0	3	315	0.00	29.861 
08:45	54.8	54.8	54.8	64	42.9	1	3	315	0.00	29.862 
08:50	55.3	55.3	55.3	65	43.7	1	3	270	0.00	29.864 
08:55	55.6	55.6	55.6	67	44.8	1	2	270	0.00	29.863 
09:00	55.9	55.9	55.9	64	43.9	1	3	248	0.00	29.861 
09:05	56.2	56.2	56.2	65	44.6	1	4	248	0.00	29.859 
09:10	56.2	56.2	56.2	66	45.0	1	4	338	0.00	29.858 
09:15	56.5	56.5	56.5	65	44.9	1	4	0	0.00	29.856 
09:20	56.7	56.7	56.7	61	43.4	1	3	270	0.00	29.858 
09:25	56.9	56.9	56.9	62	44.0	1	3	270	0.00	29.859 
09:30	57.2	57.2	57.2	63	44.7	1	3	338	0.00	29.860 
09:35	57.6	57.6	57.6	61	44.2	1	4	315	0.00	29.859 
09:40	57.6	57.6	57.6	62	44.7	1	4	338	0.00	29.861 
09:45	58.1	58.1	58.1	61	44.7	1	4	338	0.00	29.860 
09:50	58.4	58.4	58.4	59	44.1	2	4	270	0.00	29.862 
09:55	58.7	58.7	58.7	60	44.8	2	4	248	0.00	29.860 
10:00	59.2	59.2	59.2	62	46.2	1	2	315	0.00	29.860 
10:05	59.5	59.5	59.5	58	44.7	1	2	270	0.00	29.859 
10:10	60.2	60.2	60.2	64	48.0	1	3	90	0.00	29.860 
10:15	60.2	60.2	60.2	60	46.3	1	5	248	0.00	29.861 
10:20	60.4	60.4	60.4	58	45.6	1	3	270	0.00	29.860 
10:25	60.7	60.7	60.7	57	45.4	1	3	338	0.00	29.858 
10:30	61.0	61.0	61.0	54	44.2	1	4	248	0.00	29.858 
10:35	61.2	61.2	61.2	58	46.3	2	5	248	0.00	29.858 
10:40	61.3	61.3	61.3	57	45.9	1	3	270	0.00	29.860 
10:45	61.3	61.3	61.3	53	44.0	1	5	270	0.00	29.860 
10:50	61.6	61.6	61.6	58	46.7	1	3	225	0.00	29.857 
10:55	62.1	62.1	62.1	58	47.1	2	5	248	0.00	29.859 
11:00	62.1	62.1	62.1	57	46.7	2	6	270	0.00	29.858 
11:05	62.1	62.1	62.1	52	44.3	3	6	248	0.00	29.860 
11:10	62.0	62.0	62.0	56	46.1	2	7	248	0.00	29.859 
11:15	62.4	62.4	62.4	55	46.0	2	3	270	0.00	29.857 
11:20	62.6	62.6	62.6	53	45.2	1	4	292	0.00	29.857 
11:25	62.7	62.7	62.7	57	47.2	2	6	248	0.00	29.856 
11:30	62.9	62.9	62.9	54	46.0	2	5	292	0.00	29.852 
11:35	62.6	62.6	62.6	56	46.7	2	9	248	0.00	29.852 
11:40	62.7	62.7	62.7	52	44.8	1	4	248	0.00	29.850 
11:45	63.1	63.1	63.1	59	48.5	2	5	248	0.00	29.848 
11:50	63.2	63.2	63.2	54	46.3	2	4	248	0.00	29.846 
11:55	63.4	63.4	63.4	57	47.9	2	5	248	0.00	29.844 
12:00	63.4	63.4	63.4	53	46.0	1	3	248	0.00	29.841 
12:05	63.9	63.9	63.9	53	46.4	3	6	248	0.00	29.843 
12:10	64.2	64.2	64.2	53	46.7	1	6	248	0.00	29.842 
12:15	64.5	64.5	64.5	55	48.0	1	5	202	0.00	29.843 
12:20	64.8	64.8	64.8	52	46.8	2	5	248	0.00	29.843 
12:25	64.7	64.7	64.7	55	48.2	1	4	270	0.00	29.840 
12:30	65.0	65.0	65.0	50	45.9	4	10	248	0.00	29.839 
12:35	65.0	65.0	65.0	55	48.4	3	10	270	0.00	29.840 
12:40	65.5	65.5	65.5	52	47.4	2	4	270	0.00	29.840 
12:45	65.8	65.8	65.8	47	45.0	2	4	270	0.00	29.837 
12:50	65.8	65.8	65.8	50	46.6	2	7	248	0.00	29.835 
12:55	66.3	66.3	66.3	50	47.1	2	5	248	0.00	29.834 
13:00	66.8	66.8	66.8	49	47.0	1	4	270	0.00	29.829 
13:05	67.1	67.1	67.1	47	46.2	2	4	248	0.00	29.829 
13:10	67.3	67.3	67.3	48	46.9	2	5	292	0.00	29.828 
13:15	67.8	67.8	67.8	46	46.3	2	5	225	0.00	29.827 
13:20	68.3	68.3	68.3	44	45.5	2	6	248	0.00	29.828 
13:25	67.9	67.9	67.9	43	44.6	2	4	315	0.00	29.828 
13:30	68.3	68.3	68.3	42	44.3	1	3	248	0.00	29.827 
13:35	68.4	68.4	68.4	45	46.2	2	4	248	0.00	29.826 
13:40	68.6	68.6	68.6	47	47.6	2	3	248	0.00	29.823 
13:45	68.8	68.8	68.8	42	44.8	2	5	270	0.00	29.823 
13:50	68.4	68.4	68.4	41	43.8	2	4	292	0.00	29.824 
13:55	68.8	68.8	68.8	42	44.8	3	5	270	0.00	29.824 
14:00	69.1	69.1	69.1	43	45.7	3	7	270	0.00	29.823 
14:05	69.4	69.4	69.4	42	45.3	3	6	248	0.00	29.824 
14:10	69.4	69.4	69.4	43	45.9	2	5	270	0.00	29.822 
14:15	69.3	69.3	69.3	43	45.8	3	6	270	0.00	29.824 
14:20	69.3	69.3	69.3	43	45.8	3	7	270	0.00	29.824 
14:25	69.4	69.4	69.4	42	45.3	3	9	248	0.00	29.817 
14:30	69.4	69.4	69.4	42	45.3	4	8	248	0.00	29.816 
14:35	69.9	69.9	69.9	45	47.6	2	6	248	0.00	29.816 
14:40	69.9	69.9	69.9	44	47.0	3	6	270	0.00	29.814 
14:45	69.9	69.9	69.9	40	44.5	4	12	248	0.00	29.815 
14:50	69.8	69.8	69.8	43	46.3	3	10	248	0.00	29.810 
14:55	69.8	69.8	69.8	39	43.7	3	9	248	0.00	29.811 
15:00	70.1	70.1	70.1	40	44.6	2	6	248	0.00	29.811 
15:05	70.3	70.3	70.3	37	42.8	3	7	248	0.00	29.809 
15:10	70.3	70.3	70.3	39	44.2	2	5	248	0.00	29.808 
15:15	69.6	69.6	69.6	39	43.5	2	7	292	0.00	29.807 
15:20	69.6	69.6	69.6	39	43.5	2	5	248	0.00	29.807 
15:25	69.8	69.8	69.8	40	44.4	4	9	248	0.00	29.807 
15:30	69.8	69.8	69.8	40	44.4	3	6	248	0.00	29.805 
15:35	70.4	70.4	70.4	42	46.2	2	5	248	0.00	29.804 
15:40	70.6	70.6	70.6	41	45.7	4	10	270	0.00	29.804 
15:45	70.4	70.4	70.4	43	46.8	5	11	248	0.00	29.800 
15:50	70.3	70.3	70.3	45	47.9	2	7	270	0.00	29.800 
15:55	70.4	70.4	70.4	43	46.8	4	11	248	0.00	29.802 
16:00	69.8	69.8	69.8	45	47.5	2	5	270	0.00	29.804 
16:05	69.6	69.6	69.6	47	48.5	2	6	248	0.00	29.802 
16:10	70.3	70.3	70.3	46	48.5	3	9	248	0.00	29.799 
16:15	70.4	70.4	70.4	47	49.2	4	10	248	0.00	29.797 
16:20	70.3	70.3	70.3	50	50.8	3	7	248	0.00	29.798 
16:25	70.3	70.3	70.3	50	50.8	2	7	248	0.00	29.802 
16:30	70.3	70.3	70.3	47	49.1	3	13	248	0.00	29.799 
16:35	69.4	69.4	69.4	49	49.4	3	9	248	0.00	29.802 
16:40	69.1	69.1	69.1	49	49.1	3	10	248	0.00	29.803 
16:45	69.6	69.6	69.6	50	50.1	2	4	248	0.00	29.803 
16:50	69.4	69.4	69.4	50	49.9	2	6	248	0.00	29.802 
16:55	69.4	69.4	69.4	51	50.5	3	5	248	0.00	29.801 
17:00	69.1	69.1	69.1	52	50.7	2	6	270	0.00	29.802 
17:05	68.8	68.8	68.8	50	49.4	2	4	270	0.00	29.800 
17:10	68.8	68.8	68.8	50	49.4	2	5	248	0.00	29.804 
17:15	69.3	69.3	69.3	50	49.8	2	4	292	0.00	29.808 
17:20	69.6	69.6	69.6	47	48.5	3	6	270	0.00	29.810 
17:25	69.6	69.6	69.6	48	49.0	3	5	270	0.00	29.809 
17:30	69.9	69.9	69.9	47	48.7	3	5	270	0.00	29.809 
17:35	69.8	69.8	69.8	46	48.1	3	5	270	0.00	29.810 
17:40	69.6	69.6	69.6	46	47.9	2	6	270	0.00	29.810 
17:45	69.4	69.4	69.4	45	47.1	3	7	315	0.00	29.810 
17:50	69.3	69.3	69.3	43	45.8	3	10	270	0.00	29.812 
17:55	69.1	69.1	69.1	42	45.0	2	4	292	0.00	29.814 
18:00	68.6	68.6	68.6	41	44.0	3	9	270	0.00	29.816 
18:05	68.4	68.4	68.4	41	43.8	3	10	292	0.00	29.821 
18:10	68.3	68.3	68.3	41	43.7	3	7	270	0.00	29.822 
18:15	68.3	68.3	68.3	42	44.3	2	6	292	0.00	29.826 
18:20	68.3	68.3	68.3	41	43.7	3	6	315	0.00	29.826 
18:25	68.1	68.1	68.1	43	44.7	2	11	338	0.00	29.826 
18:30	67.9	67.9	67.9	42	44.0	2	6	315	0.00	29.828 
18:35	67.8	67.8	67.8	41	43.2	3	11	292	0.00	29.828 
18:40	67.6	67.6	67.6	41	43.1	3	6	338	0.00	29.831 
18:45	67.4	67.4	67.4	42	43.5	4	9	315	0.00	29.832 
18:50	67.1	67.1	67.1	43	43.8	3	7	315	0.00	29.835 
18:55	66.8	66.8	66.8	45	44.8	2	4	315	0.00	29.839 
19:00	66.4	66.4	66.4	45	44.4	3	7	292	0.00	29.841 
19:05	66.3	66.3	66.3	46	44.9	1	3	292	0.00	29.840 
19:10	66.0	66.0	66.0	46	44.6	1	5	292	0.00	29.841 
19:15	65.6	65.6	65.6	48	45.4	1	3	315	0.00	29.841 
19:20	65.3	65.3	65.3	48	45.1	1	4	270	0.00	29.842 
19:25	65.0	65.0	65.0	49	45.4	1	3	292	0.00	29.843 
19:30	64.8	64.8	64.8	50	45.7	1	4	292	0.00	29.848 
19:35	64.7	64.7	64.7	50	45.6	2	5	270	0.00	29.848 
19:40	64.5	64.5	64.5	50	45.4	1	3	248	0.00	29.851 
19:45	64.2	64.2	64.2	51	45.7	1	6	248	0.00	29.855 
19:50	64.0	64.0	64.0	52	46.0	1	4	270	0.00	29.857 
19:55	63.5	63.5	63.5	53	46.1	1	2	248	0.00	29.858 
20:00	63.4	63.4	63.4	54	46.5	0	2	248	0.00	29.858 
20:05	63.1	63.1	63.1	54	46.2	1	2	248	0.00	29.856 
20:10	63.1	63.1	63.1	54	46.2	1	3	270	0.00	29.858 
20:15	62.9	62.9	62.9	55	46.5	1	3	292	0.00	29.859 
20:20	62.6	62.6	62.6	55	46.2	0	3	270	0.00	29.861 
20:25	62.4	62.4	62.4	56	46.5	1	3	270	0.00	29.866 
20:30	62.3	62.3	62.3	56	46.4	0	2	270	0.00	29.868 
20:35	62.0	62.0	62.0	57	46.6	0	2	270	0.00	29.870 
20:40	61.8	61.8	61.8	57	46.4	0	1	270	0.00	29.871 
20:45	61.6	61.6	61.6	57	46.2	0	3	270	0.00	29.871 
20:50	61.5	61.5	61.5	58	46.6	0	1	248	0.00	29.872 
20:55	61.3	61.3	61.3	58	46.4	0	1	248	0.00	29.874 
21:00	61.0	61.0	61.0	59	46.6	0	1	248	0.00	29.876 
21:05	60.5	60.5	60.5	59	46.1	0	1	248	0.00	29.872 
21:10	60.4	60.4	60.4	60	46.4	0	1	248	0.00	29.875 
21:15	60.1	60.1	60.1	61	46.6	0	0	---	0.00	29.874 
21:20	59.8	59.8	59.8	61	46.3	0	0	---	0.00	29.875 
21:25	59.3	59.3	59.3	62	46.3	0	0	---	0.00	29.877 
21:30	59.0	59.0	59.0	63	46.4	0	0	---	0.00	29.879 
21:35	58.9	58.9	58.9	63	46.3	0	1	248	0.00	29.881 
21:40	58.7	58.7	58.7	63	46.1	0	1	248	0.00	29.883 
21:45	58.7	58.7	58.7	64	46.6	0	1	248	0.00	29.884 
21:50	58.6	58.6	58.6	64	46.5	0	0	---	0.00	29.885 
21:55	58.4	58.4	58.4	64	46.3	0	1	248	0.00	29.888 
22:00	58.3	58.3	58.3	65	46.6	0	0	---	0.00	29.888 
22:05	58.0	58.0	58.0	65	46.3	0	0	---	0.00	29.886 
22:10	57.8	57.8	57.8	66	46.5	0	1	248	0.00	29.887 
22:15	57.6	57.6	57.6	66	46.3	0	1	248	0.00	29.889 
22:20	57.6	57.6	57.6	66	46.3	0	1	248	0.00	29.888 
22:25	57.5	57.5	57.5	67	46.6	0	1	248	0.00	29.887 
22:30	57.3	57.3	57.3	67	46.4	0	1	248	0.00	29.889 
22:35	57.0	57.0	57.0	67	46.2	0	1	248	0.00	29.889 
22:40	56.9	56.9	56.9	68	46.4	0	0	---	0.00	29.888 
22:45	56.7	56.7	56.7	68	46.3	0	0	---	0.00	29.888 
22:50	56.6	56.6	56.6	68	46.2	0	1	248	0.00	29.889 
22:55	56.5	56.5	56.5	68	46.1	0	1	248	0.00	29.889 
23:00	56.6	56.6	56.6	68	46.2	0	1	248	0.00	29.890 
23:05	56.5	56.5	56.5	68	46.1	0	1	248	0.00	29.888 
23:10	56.5	56.5	56.5	69	46.5	0	1	248	0.00	29.886 
23:15	56.3	56.3	56.3	69	46.3	0	1	248	0.00	29.888 
23:20	56.2	56.2	56.2	69	46.2	0	1	248	0.00	29.888 
23:25	56.2	56.2	56.2	69	46.2	0	1	248	0.00	29.888 
23:30	56.0	56.0	56.0	69	46.0	0	1	248	0.00	29.889 
23:35	56.0	56.0	56.0	69	46.0	0	1	248	0.00	29.890 
23:40	56.0	56.0	56.0	69	46.0	0	1	248	0.00	29.892 
23:45	56.0	56.0	56.0	69	46.0	0	1	248	0.00	29.892 
23:50	56.0	56.0	56.0	69	46.0	0	1	248	0.00	29.893 
23:55	55.9	55.9	55.9	70	46.3	0	1	248	0.00	29.893 

CoCoRaHS
IN-AL-39
A2 Web Hosting
Creative Commons License
GoDaddy
Look for:

loaded 2017-12-13 10:05:10 • last modified 2010-11-18 10:43:29
Privacy PolicyDisclaimer
• wx.awcolley.com is powered by PmWiki v.2002016 •
• all content (unless otherwise noted) © 2017 A W Colley